Time;durP1;ratioP1;P1;durP2;ratioP2;P2;SDS_P1;SDS_P2;PMS_P1;PMS_P2;Temp;Humidity;BMP_temperature;BMP_pressure;BME280_temperature;BME280_humidity;BME280_pressure;Samples;Min_cycle;Max_cycle;Signal;HPM_P1;HPM_P2
2023/01/06 00:00:37;;;;;;;5.88;3.45;;;4.70;99.90;;;;;;5036497;28;20111;-74
2023/01/06 00:03:03;;;;;;;7.95;4.00;;;4.70;99.90;;;;;;5035840;28;20021;-75
2023/01/06 00:05:30;;;;;;;10.68;4.32;;;4.70;99.90;;;;;;5034796;28;20040;-74
2023/01/06 00:07:56;;;;;;;7.00;3.92;;;4.70;99.90;;;;;;5040026;28;20033;-74
2023/01/06 00:10:22;;;;;;;6.63;3.38;;;4.80;99.90;;;;;;5039173;28;20056;-74
2023/01/06 00:12:48;;;;;;;8.48;3.42;;;4.90;99.90;;;;;;5044353;28;20033;-74
2023/01/06 00:15:15;;;;;;;6.10;3.15;;;4.90;99.90;;;;;;5037484;28;20055;-74
2023/01/06 00:17:42;;;;;;;6.28;3.17;;;4.90;99.90;;;;;;5042443;28;20035;-73
2023/01/06 00:20:08;;;;;;;7.72;3.80;;;4.90;99.90;;;;;;5039717;28;20099;-74
2023/01/06 00:22:34;;;;;;;6.80;3.38;;;4.80;99.90;;;;;;5041240;28;20102;-73
2023/01/06 00:25:00;;;;;;;8.68;4.43;;;4.70;99.90;;;;;;5041064;28;20114;-73
2023/01/06 00:27:26;;;;;;;9.55;5.22;;;4.60;99.90;;;;;;5038903;28;20029;-74
2023/01/06 00:29:52;;;;;;;6.70;3.35;;;4.50;99.90;;;;;;5044687;28;20024;-74
2023/01/06 00:32:18;;;;;;;6.53;3.15;;;4.50;99.90;;;;;;5039797;28;20029;-73
2023/01/06 00:34:43;;;;;;;6.80;3.42;;;4.40;99.90;;;;;;5043007;28;20399;-74
2023/01/06 00:37:09;;;;;;;7.78;3.70;;;4.40;99.90;;;;;;5040712;28;20080;-73
2023/01/06 00:39:35;;;;;;;6.72;3.53;;;4.50;99.90;;;;;;5040292;28;20043;-74
2023/01/06 00:42:04;;;;;;;9.25;3.25;;;4.80;99.90;;;;;;5040693;28;20390;-75
2023/01/06 00:44:32;;;;;;;6.35;3.90;;;4.80;99.90;;;;;;5043517;28;20083;-74
2023/01/06 00:46:58;;;;;;;6.50;3.50;;;4.60;99.90;;;;;;5038042;28;20031;-74
2023/01/06 00:49:24;;;;;;;8.45;4.28;;;4.70;99.90;;;;;;5041457;28;20467;-74
2023/01/06 00:51:50;;;;;;;7.32;4.22;;;4.80;99.90;;;;;;5037189;28;20042;-74
2023/01/06 00:54:16;;;;;;;8.90;3.95;;;4.90;99.90;;;;;;5039570;28;20036;-73
2023/01/06 00:56:44;;;;;;;10.63;4.60;;;5.00;99.90;;;;;;5039929;28;20034;-74
2023/01/06 00:59:12;;;;;;;9.82;3.92;;;5.00;99.90;;;;;;5038195;28;20033;-74
2023/01/06 01:01:38;;;;;;;7.63;4.35;;;5.00;99.90;;;;;;5041464;28;20021;-74
2023/01/06 01:04:04;;;;;;;7.57;4.60;;;5.10;99.90;;;;;;5040929;28;20049;-73
2023/01/06 01:06:30;;;;;;;8.73;4.50;;;4.90;99.90;;;;;;5035927;28;20076;-74
2023/01/06 01:08:57;;;;;;;9.38;3.97;;;4.70;99.90;;;;;;5039460;28;20059;-73
2023/01/06 01:14:10;;;;;;;6.10;3.47;;;4.60;99.90;;;;;;5040424;28;20064;-73
2023/01/06 01:16:35;;;;;;;6.03;3.35;;;4.60;99.90;;;;;;5038717;28;20029;-74
2023/01/06 01:19:01;;;;;;;6.43;3.40;;;4.50;99.90;;;;;;5043465;28;20028;-73
2023/01/06 01:21:27;;;;;;;6.90;3.13;;;4.60;99.90;;;;;;5039593;28;20479;-73
2023/01/06 01:23:53;;;;;;;6.53;3.35;;;4.70;99.90;;;;;;5040291;28;20065;-73
2023/01/06 01:26:19;;;;;;;7.55;3.47;;;4.80;99.90;;;;;;5038783;28;20384;-73
2023/01/06 01:28:44;;;;;;;6.03;3.50;;;4.80;99.90;;;;;;5039546;28;20082;-74
2023/01/06 01:31:12;;;;;;;7.22;3.95;;;4.80;99.90;;;;;;5040420;28;20040;-73
2023/01/06 01:33:38;;;;;;;8.57;3.88;;;4.80;99.90;;;;;;5039748;28;20128;-73
2023/01/06 01:36:14;;;;;;;8.40;4.00;;;4.70;99.90;;;;;;5049855;28;20113;-73
2023/01/06 01:38:40;;;;;;;10.40;4.43;;;4.70;99.90;;;;;;5053800;28;20044;-73
2023/01/06 01:41:06;;;;;;;6.13;3.70;;;4.60;99.90;;;;;;5043265;28;20480;-73
2023/01/06 01:44:02;;;;;;;7.53;3.92;;;4.60;99.90;;;;;;5043719;28;20452;-74
2023/01/06 01:46:33;;;;;;;6.10;3.13;;;4.50;99.90;;;;;;5032967;28;20049;-74
2023/01/06 01:49:15;;;;;;;7.03;3.72;;;4.40;99.90;;;;;;5043128;28;20033;-74
2023/01/06 01:51:44;;;;;;;7.18;3.63;;;4.40;99.90;;;;;;5044789;28;20029;-74
2023/01/06 01:54:17;;;;;;;4.55;2.88;;;4.40;99.90;;;;;;5043628;28;20033;-73
2023/01/06 01:56:47;;;;;;;5.55;3.03;;;4.50;99.90;;;;;;5042672;28;20057;-74
2023/01/06 01:59:17;;;;;;;9.57;4.00;;;4.50;99.90;;;;;;5043343;28;20364;-73
2023/01/06 02:01:44;;;;;;;6.32;3.45;;;4.50;99.90;;;;;;5043936;28;20117;-73
2023/01/06 02:04:10;;;;;;;6.72;4.07;;;4.50;99.90;;;;;;5045304;28;20515;-73
2023/01/06 02:06:36;;;;;;;10.35;5.30;;;4.70;99.90;;;;;;5041191;28;20159;-73
2023/01/06 02:09:19;;;;;;;9.93;4.32;;;4.60;99.90;;;;;;5041195;28;20021;-73
2023/01/06 02:11:49;;;;;;;9.88;4.53;;;4.50;99.90;;;;;;5043623;28;20033;-73
2023/01/06 02:14:20;;;;;;;6.78;3.42;;;4.50;99.90;;;;;;5041801;28;20041;-73
2023/01/06 02:17:10;;;;;;;8.40;4.22;;;4.50;99.90;;;;;;5042920;28;20041;-73
2023/01/06 02:20:13;;;;;;;6.40;3.15;;;4.40;99.90;;;;;;5042154;28;20028;-73
2023/01/06 02:23:17;;;;;;;9.30;4.20;;;4.30;99.90;;;;;;5042626;28;20483;-74
2023/01/06 02:26:03;;;;;;;7.95;3.95;;;4.20;99.90;;;;;;5041824;28;20083;-73
2023/01/06 02:29:34;;;;;;;7.18;3.78;;;4.20;99.90;;;;;;5043216;28;20119;-74
2023/01/06 02:32:20;;;;;;;8.68;4.10;;;4.20;99.90;;;;;;5001909;28;20050;-73
2023/01/06 02:34:46;;;;;;;6.55;3.88;;;4.10;99.90;;;;;;5004212;28;20181;-73
2023/01/06 02:37:23;;;;;;;7.97;4.13;;;4.00;99.90;;;;;;5031527;28;20148;-73
2023/01/06 02:39:57;;;;;;;7.75;4.38;;;4.00;99.90;;;;;;5041373;28;20036;-73
2023/01/06 02:42:29;;;;;;;8.32;4.47;;;4.00;99.90;;;;;;5074264;28;20049;-73
2023/01/06 02:45:14;;;;;;;7.70;3.60;;;4.00;99.90;;;;;;5042637;28;20536;-73
2023/01/06 02:47:46;;;;;;;;;;;3.90;99.90;;;;;;5044665;28;20498;-74
2023/01/06 02:50:15;;;;;;;5.55;2.95;;;3.90;99.90;;;;;;5042227;28;19909;-74
2023/01/06 02:52:52;;;;;;;8.00;3.22;;;3.80;99.90;;;;;;5042054;28;20042;-74
2023/01/06 02:55:24;;;;;;;6.15;3.80;;;3.80;99.90;;;;;;5042054;28;20025;-73
2023/01/06 02:58:04;;;;;;;9.30;5.38;;;3.90;99.90;;;;;;5045554;28;20029;-74
2023/01/06 03:00:34;;;;;;;10.70;5.22;;;3.80;99.90;;;;;;5045640;28;20029;-74
2023/01/06 03:03:16;;;;;;;8.10;4.45;;;3.80;99.90;;;;;;5042428;28;20479;-73
2023/01/06 03:05:44;;;;;;;6.13;3.47;;;3.80;99.90;;;;;;5040698;28;20033;-74
2023/01/06 03:08:21;;;;;;;10.30;3.60;;;3.80;99.90;;;;;;5042808;28;20121;-73
2023/01/06 03:10:48;;;;;;;7.75;4.63;;;3.80;99.90;;;;;;5041274;28;20044;-73
2023/01/06 03:13:37;;;;;;;7.32;4.50;;;3.80;99.90;;;;;;5040952;28;20041;-73
2023/01/06 03:16:03;;;;;;;7.75;4.32;;;3.90;99.90;;;;;;5040692;28;20048;-73
2023/01/06 03:18:30;;;;;;;11.73;6.22;;;3.90;99.90;;;;;;5038859;28;20033;-73
2023/01/06 03:20:58;;;;;;;8.45;5.35;;;3.90;99.90;;;;;;5042782;28;20097;-73
2023/01/06 03:23:24;;;;;;;12.50;6.07;;;3.90;99.90;;;;;;5043035;28;20464;-73
2023/01/06 03:25:50;;;;;;;11.75;5.82;;;3.80;99.90;;;;;;5042115;28;20506;-73
2023/01/06 03:28:16;;;;;;;6.35;3.55;;;3.70;99.90;;;;;;5046563;28;20022;-73
2023/01/06 03:31:26;;;;;;;8.30;3.53;;;3.80;99.90;;;;;;5041334;28;20490;-73
2023/01/06 03:34:16;;;;;;;8.23;3.92;;;3.90;99.90;;;;;;5036483;28;20045;-73
2023/01/06 03:37:05;;;;;;;5.10;2.83;;;4.10;99.90;;;;;;5041974;28;20064;-74
2023/01/06 03:39:34;;;;;;;7.15;2.80;;;4.00;99.90;;;;;;5043067;28;20033;-73
2023/01/06 03:45:28;;;;;;;4.45;2.45;;;3.90;99.90;;;;;;5037243;28;20049;-73
2023/01/06 03:47:53;;;;;;;6.80;3.30;;;3.90;99.90;;;;;;5040185;28;20036;-73
2023/01/06 03:50:26;;;;;;;6.88;3.95;;;3.90;99.90;;;;;;5043113;28;20021;-74
2023/01/06 03:53:03;;;;;;;7.07;3.28;;;3.70;99.90;;;;;;5042895;28;20390;-73
2023/01/06 03:55:32;;;;;;;7.75;3.83;;;3.80;99.90;;;;;;5040298;28;20112;-73
2023/01/06 03:57:59;;;;;;;7.35;4.22;;;3.70;99.90;;;;;;5039355;28;20025;-73
2023/01/06 04:00:33;;;;;;;5.47;3.08;;;3.80;99.90;;;;;;5037687;28;20037;-73
2023/01/06 04:03:00;;;;;;;8.50;4.28;;;3.80;99.90;;;;;;5036455;28;20086;-74
2023/01/06 04:05:27;;;;;;;9.15;4.38;;;3.80;99.90;;;;;;5035191;28;20029;-74
2023/01/06 04:07:53;;;;;;;6.97;4.20;;;3.70;99.90;;;;;;5034260;28;20033;-74
2023/01/06 04:10:21;;;;;;;9.07;4.78;;;3.80;99.90;;;;;;5039360;28;20128;-74
2023/01/06 04:12:47;;;;;;;9.05;5.03;;;3.70;99.90;;;;;;5035911;28;20037;-73
2023/01/06 04:15:21;;;;;;;9.38;5.80;;;3.70;99.90;;;;;;5038776;28;20029;-74
2023/01/06 04:17:48;;;;;;;14.00;4.78;;;3.80;99.90;;;;;;5031043;28;20568;-73
2023/01/06 04:20:16;;;;;;;9.38;4.60;;;3.80;99.90;;;;;;5033512;28;20471;-74
2023/01/06 04:22:42;;;;;;;8.73;5.25;;;3.80;99.90;;;;;;5033381;28;20048;-74
2023/01/06 04:25:08;;;;;;;7.43;4.35;;;3.90;99.90;;;;;;5037438;28;20032;-73
2023/01/06 04:27:34;;;;;;;7.60;4.13;;;3.90;99.90;;;;;;5034803;28;20033;-74
2023/01/06 04:30:00;;;;;;;8.10;4.07;;;3.90;99.90;;;;;;5038101;28;20048;-74
2023/01/06 04:32:26;;;;;;;8.95;4.65;;;4.00;99.90;;;;;;5036523;28;20037;-74
2023/01/06 04:34:52;;;;;;;11.13;5.32;;;4.00;99.90;;;;;;5035420;28;20029;-74
2023/01/06 04:37:18;;;;;;;9.20;3.83;;;4.10;99.90;;;;;;5037438;28;20091;-74
2023/01/06 04:39:44;;;;;;;9.07;4.97;;;4.00;99.90;;;;;;5038623;28;20025;-74
2023/01/06 04:42:10;;;;;;;6.53;3.22;;;4.00;99.90;;;;;;5036238;28;20041;-73
2023/01/06 04:44:35;;;;;;;8.02;2.45;;;4.00;99.90;;;;;;5035892;28;20112;-74
2023/01/06 04:47:01;;;;;;;6.15;2.25;;;3.90;99.90;;;;;;5039714;28;20086;-74
2023/01/06 04:49:27;;;;;;;2.90;1.25;;;4.00;99.90;;;;;;5038992;28;20528;-73
2023/01/06 04:51:52;;;;;;;1.73;0.85;;;4.10;99.90;;;;;;5036532;28;20030;-73
2023/01/06 04:54:18;;;;;;;2.15;1.25;;;4.40;99.90;;;;;;5036329;28;20562;-74
2023/01/06 04:56:44;;;;;;;4.25;1.85;;;4.60;99.90;;;;;;5038953;28;20021;-74
2023/01/06 04:59:09;;;;;;;4.60;2.47;;;4.50;99.90;;;;;;5035280;28;20530;-74
2023/01/06 05:01:36;;;;;;;5.90;2.65;;;4.40;99.90;;;;;;5036694;28;20041;-73
2023/01/06 05:04:02;;;;;;;4.85;2.72;;;4.30;99.90;;;;;;5033970;28;20021;-74
2023/01/06 05:06:28;;;;;;;5.05;2.50;;;4.20;99.90;;;;;;5034586;28;20035;-75
2023/01/06 05:08:53;;;;;;;5.57;2.50;;;4.00;99.90;;;;;;5030877;28;20395;-74
2023/01/06 05:11:24;;;;;;;4.50;1.70;;;4.00;99.90;;;;;;5033850;28;20036;-74
2023/01/06 05:13:50;;;;;;;3.25;1.50;;;4.10;99.90;;;;;;5035892;28;20040;-74
2023/01/06 05:16:23;;;;;;;3.90;1.95;;;4.10;99.90;;;;;;5038591;28;20078;-74
2023/01/06 05:18:49;;;;;;;4.95;2.22;;;4.10;99.90;;;;;;5037174;28;20021;-74
2023/01/06 05:21:14;;;;;;;5.28;2.70;;;4.10;99.90;;;;;;5034903;28;20042;-74
2023/01/06 05:23:40;;;;;;;7.97;2.58;;;4.00;99.90;;;;;;5037706;28;20033;-74
2023/01/06 05:26:08;;;;;;;5.63;2.33;;;4.00;99.90;;;;;;5037137;28;20029;-74
2023/01/06 05:28:33;;;;;;;5.28;2.38;;;4.00;99.90;;;;;;5035083;28;20030;-74
2023/01/06 05:31:00;;;;;;;3.53;1.83;;;4.00;99.90;;;;;;5033264;28;20080;-74
2023/01/06 05:33:26;;;;;;;4.63;2.33;;;3.90;99.90;;;;;;5035500;28;20400;-74
2023/01/06 05:36:04;;;;;;;6.22;3.58;;;4.00;99.90;;;;;;5037478;28;20044;-73
2023/01/06 05:38:30;;;;;;;6.15;5.10;;;4.00;99.90;;;;;;5035851;28;20037;-74
2023/01/06 05:40:56;;;;;;;9.40;7.00;;;4.00;99.90;;;;;;5037295;28;20024;-74
2023/01/06 05:43:23;;;;;;;7.28;5.03;;;3.90;99.90;;;;;;5036824;28;20033;-74
2023/01/06 05:45:48;;;;;;;7.53;4.35;;;3.90;99.90;;;;;;5037200;28;20032;-74
2023/01/06 05:48:14;;;;;;;4.45;2.55;;;3.80;99.90;;;;;;5033788;28;20043;-74
2023/01/06 05:50:40;;;;;;;4.65;2.72;;;3.80;99.90;;;;;;5037698;28;20036;-74
2023/01/06 05:53:06;;;;;;;6.72;2.85;;;3.90;99.90;;;;;;5032558;28;20029;-73
2023/01/06 05:55:31;;;;;;;5.20;2.25;;;4.00;99.90;;;;;;5036251;28;20037;-74
2023/01/06 05:57:57;;;;;;;4.00;1.90;;;4.10;99.90;;;;;;5036779;28;20035;-73
2023/01/06 06:00:23;;;;;;;5.00;3.22;;;4.00;99.90;;;;;;5035902;28;20036;-74
2023/01/06 06:02:48;;;;;;;4.82;2.15;;;4.00;99.90;;;;;;5034605;28;20094;-73
2023/01/06 06:05:14;;;;;;;5.70;2.50;;;4.10;99.90;;;;;;5036775;28;20072;-74
2023/01/06 06:07:40;;;;;;;4.07;2.00;;;4.20;99.90;;;;;;5033908;28;20029;-73
2023/01/06 06:10:07;;;;;;;5.05;2.35;;;4.10;99.90;;;;;;5036258;28;20028;-74
2023/01/06 06:12:33;;;;;;;9.20;3.97;;;4.10;99.90;;;;;;5036246;28;20040;-74
2023/01/06 06:14:58;;;;;;;6.65;3.05;;;4.10;99.90;;;;;;5036931;28;20028;-74
2023/01/06 06:17:24;;;;;;;5.80;2.78;;;4.10;99.90;;;;;;5033935;28;20447;-73
2023/01/06 06:19:50;;;;;;;6.97;4.00;;;4.00;99.90;;;;;;5033014;28;20040;-74
2023/01/06 06:22:16;;;;;;;4.30;2.25;;;4.00;99.90;;;;;;5034806;28;20048;-74
2023/01/06 06:24:41;;;;;;;3.38;1.58;;;4.00;99.90;;;;;;5068384;28;20036;-74
2023/01/06 06:27:07;;;;;;;4.50;1.63;;;4.00;99.90;;;;;;5038142;28;20550;-73
2023/01/06 06:29:33;;;;;;;4.63;1.13;;;4.10;99.90;;;;;;5035823;28;20426;-74
2023/01/06 06:31:58;;;;;;;2.40;1.02;;;4.10;99.90;;;;;;5037032;28;20072;-73
2023/01/06 06:34:24;;;;;;;3.60;1.60;;;4.20;99.90;;;;;;5036098;28;20060;-73
2023/01/06 06:36:50;;;;;;;2.38;0.98;;;4.10;99.90;;;;;;5037655;28;20114;-74
2023/01/06 06:39:16;;;;;;;5.00;1.80;;;4.00;99.90;;;;;;5035096;28;20061;-74
2023/01/06 06:41:41;;;;;;;4.10;2.28;;;3.90;99.90;;;;;;5031768;28;20483;-75
2023/01/06 06:44:08;;;;;;;3.45;1.67;;;3.90;99.90;;;;;;5034145;28;20037;-74
2023/01/06 06:46:33;;;;;;;2.50;1.20;;;3.80;99.90;;;;;;5034194;28;20657;-73
2023/01/06 06:48:59;;;;;;;3.38;1.20;;;3.70;99.90;;;;;;5039609;28;20064;-74
2023/01/06 06:51:25;;;;;;;4.95;2.30;;;3.60;99.90;;;;;;5036474;28;20039;-73
2023/01/06 06:53:50;;;;;;;4.57;2.13;;;3.60;99.90;;;;;;5032393;28;20123;-74
2023/01/06 06:56:18;;;;;;;4.88;1.95;;;3.60;99.90;;;;;;5039883;28;20030;-74
2023/01/06 06:58:44;;;;;;;3.88;1.60;;;3.50;99.90;;;;;;5037018;28;20793;-74
2023/01/06 07:01:12;;;;;;;5.70;2.58;;;3.50;99.90;;;;;;5032110;28;20069;-75
2023/01/06 07:03:38;;;;;;;5.80;2.80;;;3.60;99.90;;;;;;5031408;28;20545;-73
2023/01/06 07:06:07;;;;;;;4.75;2.10;;;3.60;99.90;;;;;;5037109;28;20029;-73
2023/01/06 07:08:33;;;;;;;4.22;1.60;;;3.60;99.90;;;;;;5035102;28;20095;-73
2023/01/06 07:10:59;;;;;;;3.28;1.30;;;3.40;99.90;;;;;;5035620;28;20475;-73
2023/01/06 07:13:25;;;;;;;3.13;1.10;;;3.60;99.90;;;;;;5031257;28;20263;-73
2023/01/06 07:15:50;;;;;;;2.22;0.88;;;4.10;99.90;;;;;;5031375;28;20029;-73
2023/01/06 07:18:17;;;;;;;2.78;1.20;;;4.30;99.90;;;;;;5034643;28;20601;-73
2023/01/06 07:20:47;;;;;;;1.98;0.80;;;4.30;99.90;;;;;;5037212;28;20040;-73
2023/01/06 07:23:13;;;;;;;2.72;0.82;;;4.40;99.90;;;;;;5033705;28;20456;-73
2023/01/06 07:25:39;;;;;;;3.20;1.50;;;4.30;99.90;;;;;;5028941;28;20017;-73
2023/01/06 07:28:06;;;;;;;3.80;1.70;;;4.20;99.90;;;;;;5031729;28;20105;-73
2023/01/06 07:30:32;;;;;;;2.22;1.10;;;4.40;99.90;;;;;;5028741;28;20040;-73
2023/01/06 07:32:58;;;;;;;5.63;1.40;;;4.50;99.90;;;;;;5035692;28;20110;-73
2023/01/06 07:35:24;;;;;;;3.78;1.60;;;4.30;99.90;;;;;;5037509;28;20534;-73
2023/01/06 07:37:50;;;;;;;3.28;1.40;;;4.10;99.90;;;;;;5030217;28;20033;-73
2023/01/06 07:40:17;;;;;;;3.33;1.33;;;4.10;99.90;;;;;;5030712;28;20052;-73
2023/01/06 07:42:43;;;;;;;3.33;1.05;;;4.10;99.90;;;;;;5029815;28;20729;-73
2023/01/06 07:45:10;;;;;;;2.17;1.13;;;4.10;99.90;;;;;;5035471;28;20032;-73
2023/01/06 07:47:36;;;;;;;3.75;1.52;;;4.10;99.90;;;;;;5026070;28;20033;-73
2023/01/06 07:50:03;;;;;;;6.78;2.50;;;3.90;99.90;;;;;;5032878;28;20378;-73
2023/01/06 07:52:29;;;;;;;3.20;1.75;;;3.80;99.90;;;;;;5036918;28;20957;-74
2023/01/06 07:54:58;;;;;;;2.92;1.42;;;3.90;99.90;;;;;;5034629;28;20102;-74
2023/01/06 07:57:25;;;;;;;4.00;1.55;;;3.90;99.90;;;;;;5036209;28;20021;-74
2023/01/06 07:59:51;;;;;;;3.45;1.70;;;3.90;99.90;;;;;;5045863;28;20459;-74
2023/01/06 08:02:16;;;;;;;1.90;0.85;;;3.80;99.90;;;;;;5037353;28;20518;-75
2023/01/06 08:04:42;;;;;;;3.38;1.30;;;3.80;99.90;;;;;;5038907;28;20612;-75
2023/01/06 08:07:08;;;;;;;3.00;1.05;;;3.90;99.90;;;;;;5033989;28;20087;-75
2023/01/06 08:09:33;;;;;;;3.45;1.48;;;3.90;99.90;;;;;;5036090;28;20060;-75
2023/01/06 08:11:59;;;;;;;4.43;1.75;;;3.90;99.90;;;;;;5033957;28;20036;-75
2023/01/06 08:14:25;;;;;;;4.05;1.60;;;3.80;99.90;;;;;;5037733;28;20155;-75
2023/01/06 08:16:51;;;;;;;1.95;1.20;;;3.90;99.90;;;;;;5039674;28;20120;-74
2023/01/06 08:19:16;;;;;;;4.63;1.98;;;3.90;99.90;;;;;;5037993;28;20057;-75
2023/01/06 08:21:42;;;;;;;4.55;2.17;;;3.90;99.90;;;;;;5034747;28;20052;-74
2023/01/06 08:24:08;;;;;;;3.70;1.75;;;3.90;99.90;;;;;;5032943;28;20029;-75
2023/01/06 08:26:33;;;;;;;5.07;2.63;;;3.90;99.90;;;;;;5031722;28;20029;-74
2023/01/06 08:28:59;;;;;;;4.30;2.20;;;3.90;99.90;;;;;;5028709;28;20411;-75
2023/01/06 08:31:25;;;;;;;3.75;2.13;;;3.80;99.90;;;;;;5029284;28;20029;-74
2023/01/06 08:33:52;;;;;;;4.43;2.00;;;3.90;99.90;;;;;;5026674;28;20083;-74
2023/01/06 08:36:19;;;;;;;5.22;2.20;;;3.80;99.90;;;;;;5031903;28;20486;-75
2023/01/06 08:38:46;;;;;;;3.60;1.92;;;3.80;99.90;;;;;;5030522;28;20029;-75
2023/01/06 08:41:12;;;;;;;3.35;1.63;;;3.80;99.90;;;;;;5029391;28;20120;-76
2023/01/06 08:43:40;;;;;;;4.28;1.42;;;3.80;99.90;;;;;;5032390;28;20025;-76
2023/01/06 08:46:08;;;;;;;3.28;1.95;;;3.80;99.90;;;;;;5032053;28;20104;-76
2023/01/06 08:48:34;;;;;;;2.58;1.52;;;3.90;99.90;;;;;;5031095;28;20064;-77
2023/01/06 08:51:19;;;;;;;3.83;1.60;;;4.00;99.90;;;;;;5031947;28;20048;-77
2023/01/06 08:53:46;;;;;;;3.00;1.30;;;4.10;99.90;;;;;;5033167;28;20073;-78
2023/01/06 08:56:21;;;;;;;4.30;2.22;;;4.10;99.90;;;;;;5026654;28;20025;-77
2023/01/06 08:59:03;;;;;;;3.88;1.60;;;4.10;99.90;;;;;;5028696;28;20069;-74
2023/01/06 09:01:32;;;;;;;5.15;2.20;;;4.10;99.90;;;;;;5032032;28;20123;-75
2023/01/06 09:03:59;;;;;;;4.57;1.77;;;4.20;99.90;;;;;;5034334;28;20123;-76
2023/01/06 09:06:26;;;;;;;3.17;1.60;;;4.30;99.90;;;;;;5033081;28;20610;-76
2023/01/06 09:08:52;;;;;;;4.57;1.75;;;4.30;99.90;;;;;;5032737;28;20033;-77
2023/01/06 09:11:18;;;;;;;3.55;1.52;;;4.30;99.90;;;;;;5030884;28;20483;-75
2023/01/06 09:13:44;;;;;;;4.22;2.20;;;4.30;99.90;;;;;;5036068;28;20056;-75
2023/01/06 09:16:11;;;;;;;4.00;2.00;;;4.30;99.90;;;;;;5034211;28;20505;-75
2023/01/06 09:18:37;;;;;;;4.13;1.90;;;4.30;99.90;;;;;;5034060;28;20021;-75
2023/01/06 09:21:04;;;;;;;3.83;1.58;;;4.30;99.90;;;;;;5037072;28;20186;-76
2023/01/06 09:23:31;;;;;;;3.55;1.40;;;4.30;99.90;;;;;;5041280;28;20272;-75
2023/01/06 09:25:57;;;;;;;3.17;1.60;;;4.40;99.90;;;;;;5032296;28;20114;-76
2023/01/06 09:28:24;;;;;;;2.83;1.35;;;4.30;99.90;;;;;;5038933;28;20133;-76
2023/01/06 09:30:50;;;;;;;2.13;1.20;;;4.40;99.90;;;;;;5032753;28;20029;-75
2023/01/06 09:33:16;;;;;;;2.67;1.50;;;4.40;99.90;;;;;;5031612;28;20049;-75
2023/01/06 09:35:45;;;;;;;2.25;1.27;;;4.50;99.90;;;;;;5032526;28;20029;-74
2023/01/06 09:38:12;;;;;;;2.70;1.33;;;4.60;99.90;;;;;;5036266;28;20059;-74
2023/01/06 09:40:59;;;;;;;3.13;1.40;;;4.60;99.90;;;;;;5031525;28;20032;-74
2023/01/06 09:43:45;;;;;;;2.55;1.40;;;4.70;99.90;;;;;;5030039;28;20033;-74
2023/01/06 09:46:14;;;;;;;7.05;2.78;;;4.70;99.90;;;;;;5034702;28;20044;-75
2023/01/06 09:49:03;;;;;;;3.97;1.67;;;4.60;99.90;;;;;;5029182;28;20043;-74
2023/01/06 09:51:31;;;;;;;4.88;1.70;;;4.70;99.90;;;;;;4988174;28;20037;-75
2023/01/06 09:54:13;;;;;;;3.58;1.23;;;4.70;99.90;;;;;;5030797;28;20079;-74
2023/01/06 09:56:42;;;;;;;2.75;1.20;;;4.70;99.90;;;;;;5030142;28;20036;-74
2023/01/06 09:59:16;;;;;;;1.73;0.90;;;4.70;99.90;;;;;;5041041;28;20025;-74
2023/01/06 10:01:47;;;;;;;3.42;1.45;;;4.60;99.90;;;;;;5032966;28;20028;-74
2023/01/06 10:04:25;;;;;;;2.97;1.52;;;4.70;99.90;;;;;;5039769;28;20395;-74
2023/01/06 10:07:29;;;;;;;4.38;2.13;;;4.60;99.90;;;;;;5037761;28;20025;-74
2023/01/06 10:10:29;;;;;;;4.35;1.83;;;4.70;99.90;;;;;;5024339;28;20106;-74
2023/01/06 10:13:23;;;;;;;3.05;1.67;;;4.70;99.90;;;;;;5033451;28;20137;-74
2023/01/06 10:15:58;;;;;;;5.13;1.92;;;4.80;99.90;;;;;;5037764;28;20036;-74
2023/01/06 10:19:01;;;;;;;5.82;3.05;;;4.80;99.90;;;;;;5037636;28;20163;-74
2023/01/06 10:21:40;;;;;;;6.15;2.95;;;5.00;99.90;;;;;;5038187;28;20056;-74
2023/01/06 10:24:20;;;;;;;6.03;2.10;;;5.10;99.90;;;;;;5035368;28;20153;-74
2023/01/06 10:26:53;;;;;;;5.45;2.05;;;5.10;99.90;;;;;;5034677;28;20044;-74
2023/01/06 10:29:19;;;;;;;7.25;2.75;;;5.30;99.90;;;;;;5036102;28;20036;-74
2023/01/06 10:31:47;;;;;;;6.18;2.58;;;5.30;99.90;;;;;;5032834;28;20458;-74
2023/01/06 10:34:20;;;;;;;7.68;3.33;;;5.30;99.90;;;;;;5035079;28;20032;-74
2023/01/06 10:36:53;;;;;;;6.03;2.90;;;5.20;99.90;;;;;;5031296;28;20033;-74
2023/01/06 10:39:22;;;;;;;7.30;3.50;;;5.10;99.90;;;;;;5044531;28;20083;-74
2023/01/06 10:42:54;;;;;;;6.85;3.22;;;5.10;99.90;;;;;;5044939;28;20025;-73
2023/01/06 10:44:42;;;;;;;3.97;2.45;;;5.30;99.90;;;;;;5043900;28;20039;-76
2023/01/06 10:47:19;;;;;;;4.63;2.90;;;5.30;99.90;;;;;;5045773;28;20033;-75
2023/01/06 10:49:45;;;;;;;4.50;1.80;;;5.30;99.90;;;;;;5046189;28;20036;-75
2023/01/06 10:52:12;;;;;;;3.88;1.70;;;5.30;99.90;;;;;;5042753;28;20121;-75
2023/01/06 10:54:40;;;;;;;3.03;1.33;;;5.40;99.90;;;;;;5043544;28;20111;-75
2023/01/06 10:57:15;;;;;;;2.78;1.23;;;5.40;99.90;;;;;;5045776;28;20029;-75
2023/01/06 11:00:25;;;;;;;3.05;1.40;;;5.50;99.90;;;;;;5044723;28;20044;-74
2023/01/06 11:02:56;;;;;;;2.15;0.90;;;5.60;99.90;;;;;;5037687;28;20037;-76
2023/01/06 11:05:24;;;;;;;2.42;1.17;;;5.90;99.90;;;;;;5043492;28;20044;-76
2023/01/06 11:08:00;;;;;;;1.75;0.88;;;6.10;99.90;;;;;;5043836;28;20471;-76
2023/01/06 11:10:49;;;;;;;2.95;1.30;;;6.30;99.90;;;;;;5041560;28;20039;-74
2023/01/06 11:13:34;;;;;;;2.50;1.42;;;6.50;99.90;;;;;;5036665;28;20107;-74
2023/01/06 11:16:05;;;;;;;5.18;2.03;;;6.60;99.90;;;;;;5041776;28;20059;-73
2023/01/06 11:18:33;;;;;;;3.83;2.10;;;6.70;99.90;;;;;;5037752;28;20072;-75
2023/01/06 11:21:16;;;;;;;6.45;2.70;;;6.70;99.90;;;;;;5031649;28;20056;-73
2023/01/06 11:23:45;;;;;;;5.88;2.97;;;6.70;99.90;;;;;;5034094;28;20052;-75
2023/01/06 11:26:11;;;;;;;6.97;3.58;;;6.80;99.90;;;;;;5047104;28;20098;-74
2023/01/06 11:28:38;;;;;;;7.65;4.20;;;6.80;99.90;;;;;;5040687;28;20041;-75
2023/01/06 11:31:05;;;;;;;8.77;5.22;;;7.00;99.90;;;;;;5045856;28;20471;-75
2023/01/06 11:33:35;;;;;;;8.45;4.38;;;7.00;99.90;;;;;;5044023;28;20427;-73
2023/01/06 11:36:12;;;;;;;11.52;4.82;;;7.10;99.90;;;;;;5045548;28;20371;-76
2023/01/06 11:39:12;;;;;;;7.70;4.88;;;7.30;99.90;;;;;;5040764;28;20078;-74
2023/01/06 11:41:45;;;;;;;7.90;5.38;;;7.50;99.90;;;;;;5025810;28;20025;-75
2023/01/06 11:44:32;;;;;;;9.05;5.63;;;7.50;99.90;;;;;;5039593;28;20039;-75
2023/01/06 11:47:12;;;;;;;38.53;23.73;;;7.40;99.90;;;;;;5037045;28;20102;-74
2023/01/06 11:50:01;;;;;;;15.95;9.40;;;7.60;99.90;;;;;;5034496;28;20021;-76
2023/01/06 11:52:30;;;;;;;12.82;5.25;;;7.60;99.90;;;;;;5040460;28;20049;-75
2023/01/06 11:55:01;;;;;;;8.60;5.25;;;7.90;99.90;;;;;;5027529;28;20063;-75
2023/01/06 11:57:30;;;;;;;9.32;6.10;;;7.80;99.90;;;;;;5031475;28;20208;-74
2023/01/06 12:00:11;;;;;;;9.45;6.57;;;7.90;99.90;;;;;;5027332;28;20043;-74
2023/01/06 12:03:03;;;;;;;8.52;4.28;;;8.10;99.90;;;;;;5027942;28;20091;-75
2023/01/06 12:05:38;;;;;;;5.85;3.92;;;8.10;99.90;;;;;;5028548;28;20029;-76
2023/01/06 12:08:09;;;;;;;;;;;8.10;99.90;;;;;;5039198;28;20029;-73
2023/01/06 12:10:36;;;;;;;17.80;12.57;;;8.10;99.90;;;;;;5026713;28;20012;-77
2023/01/06 12:13:02;;;;;;;16.42;12.23;;;8.10;99.90;;;;;;5029546;28;20025;-77
2023/01/06 12:15:31;;;;;;;16.88;13.05;;;8.40;99.90;;;;;;5032727;28;20380;-76
2023/01/06 12:18:15;;;;;;;11.95;7.45;;;8.40;99.90;;;;;;5026068;28;20458;-74
2023/01/06 12:20:46;;;;;;;12.50;9.43;;;8.30;99.90;;;;;;5030710;28;20537;-76
2023/01/06 12:23:18;;;;;;;12.13;7.30;;;8.30;99.90;;;;;;5031732;28;20036;-75
2023/01/06 12:25:46;;;;;;;14.15;10.40;;;8.40;99.90;;;;;;5025249;28;20032;-78
2023/01/06 12:28:28;;;;;;;12.43;8.43;;;8.40;99.90;;;;;;5030377;28;20038;-75
2023/01/06 12:31:07;;;;;;;12.55;8.95;;;8.40;99.90;;;;;;5029459;28;20028;-75
2023/01/06 12:33:44;;;;;;;12.82;8.57;;;8.50;99.90;;;;;;5033047;28;20454;-74
2023/01/06 12:36:46;;;;;;;11.85;8.43;;;8.40;99.90;;;;;;5039800;28;20087;-74
2023/01/06 12:39:40;;;;;;;9.48;5.93;;;8.60;99.90;;;;;;5028598;28;20033;-74
2023/01/06 12:42:32;;;;;;;7.75;5.03;;;8.60;99.90;;;;;;5027176;28;20056;-74
2023/01/06 12:45:16;;;;;;;9.07;4.65;;;8.60;99.90;;;;;;5030071;28;20106;-76
2023/01/06 12:47:54;;;;;;;9.00;5.35;;;8.70;99.90;;;;;;5026443;28;20029;-74
2023/01/06 12:50:20;;;;;;;6.75;4.35;;;8.50;99.90;;;;;;5026764;28;20071;-73
2023/01/06 12:53:11;;;;;;;8.63;4.75;;;8.50;99.90;;;;;;5031585;28;20248;-74
2023/01/06 12:56:19;;;;;;;6.38;3.58;;;8.60;99.90;;;;;;5020478;28;20490;-73
2023/01/06 12:59:15;;;;;;;13.45;5.43;;;8.60;99.90;;;;;;5021361;28;20068;-73
2023/01/06 13:01:53;;;;;;;8.85;4.60;;;8.70;99.90;;;;;;5029048;28;20575;-73
2023/01/06 13:04:50;;;;;;;6.60;3.38;;;8.80;99.90;;;;;;5029407;28;20037;-73
2023/01/06 13:07:40;;;;;;;6.47;3.47;;;8.80;99.90;;;;;;5032923;28;20475;-73
2023/01/06 13:10:32;;;;;;;4.78;2.80;;;8.80;99.90;;;;;;5026512;28;20045;-73
2023/01/06 13:13:13;;;;;;;4.55;2.50;;;8.70;99.90;;;;;;5028341;28;20520;-73
2023/01/06 13:15:43;;;;;;;5.07;2.75;;;8.60;99.90;;;;;;5023000;28;20029;-73
2023/01/06 13:18:58;;;;;;;5.35;2.75;;;8.70;99.90;;;;;;5028517;28;20063;-73
2023/01/06 13:21:26;;;;;;;4.73;3.03;;;8.70;99.90;;;;;;5012667;28;20045;-74
2023/01/06 13:24:03;;;;;;;4.18;2.13;;;8.70;99.90;;;;;;5010514;28;20033;-73